sensor_id;sensor_type;location;lat;lon;timestamp;P1;durP1;ratioP1;P2;durP2;ratioP2
41201;SDS011;26936;50.524;8.684;2023-12-28T00:01:07;7.22;;;3.85;;
41201;SDS011;26936;50.524;8.684;2023-12-28T00:03:33;10.85;;;4.22;;
41201;SDS011;26936;50.524;8.684;2023-12-28T00:05:58;7.22;;;3.63;;
41201;SDS011;26936;50.524;8.684;2023-12-28T00:08:23;7.90;;;3.97;;
41201;SDS011;26936;50.524;8.684;2023-12-28T00:10:48;7.07;;;3.80;;
41201;SDS011;26936;50.524;8.684;2023-12-28T00:13:14;6.00;;;3.47;;
41201;SDS011;26936;50.524;8.684;2023-12-28T00:15:39;5.00;;;3.30;;
41201;SDS011;26936;50.524;8.684;2023-12-28T00:18:04;6.20;;;3.50;;
41201;SDS011;26936;50.524;8.684;2023-12-28T00:20:29;9.13;;;3.80;;
41201;SDS011;26936;50.524;8.684;2023-12-28T00:22:55;8.93;;;3.30;;
41201;SDS011;26936;50.524;8.684;2023-12-28T00:25:20;10.70;;;4.47;;
41201;SDS011;26936;50.524;8.684;2023-12-28T00:27:45;6.55;;;4.22;;
41201;SDS011;26936;50.524;8.684;2023-12-28T00:30:11;7.25;;;3.35;;
41201;SDS011;26936;50.524;8.684;2023-12-28T00:32:36;8.02;;;3.13;;
41201;SDS011;26936;50.524;8.684;2023-12-28T00:35:02;6.60;;;3.58;;
41201;SDS011;26936;50.524;8.684;2023-12-28T00:37:27;6.75;;;3.30;;
41201;SDS011;26936;50.524;8.684;2023-12-28T00:39:52;8.40;;;3.60;;
41201;SDS011;26936;50.524;8.684;2023-12-28T00:42:17;8.33;;;3.53;;
41201;SDS011;26936;50.524;8.684;2023-12-28T00:44:44;5.35;;;2.80;;
41201;SDS011;26936;50.524;8.684;2023-12-28T00:47:09;6.18;;;3.00;;
41201;SDS011;26936;50.524;8.684;2023-12-28T00:49:35;6.15;;;3.30;;
41201;SDS011;26936;50.524;8.684;2023-12-28T00:52:01;9.20;;;3.60;;
41201;SDS011;26936;50.524;8.684;2023-12-28T00:54:26;5.23;;;2.83;;
41201;SDS011;26936;50.524;8.684;2023-12-28T00:56:51;5.27;;;2.90;;
41201;SDS011;26936;50.524;8.684;2023-12-28T00:59:16;5.70;;;3.20;;
41201;SDS011;26936;50.524;8.684;2023-12-28T01:01:42;6.68;;;3.15;;
41201;SDS011;26936;50.524;8.684;2023-12-28T01:04:07;6.27;;;3.20;;
41201;SDS011;26936;50.524;8.684;2023-12-28T01:06:32;9.43;;;3.47;;
41201;SDS011;26936;50.524;8.684;2023-12-28T01:08:57;5.73;;;3.20;;
41201;SDS011;26936;50.524;8.684;2023-12-28T01:11:23;7.87;;;3.17;;
41201;SDS011;26936;50.524;8.684;2023-12-28T01:13:48;6.07;;;3.28;;
41201;SDS011;26936;50.524;8.684;2023-12-28T01:16:13;5.65;;;3.33;;
41201;SDS011;26936;50.524;8.684;2023-12-28T01:18:39;6.80;;;3.23;;
41201;SDS011;26936;50.524;8.684;2023-12-28T01:21:04;5.47;;;2.88;;
41201;SDS011;26936;50.524;8.684;2023-12-28T01:23:30;6.25;;;3.00;;
41201;SDS011;26936;50.524;8.684;2023-12-28T01:25:56;6.88;;;3.38;;
41201;SDS011;26936;50.524;8.684;2023-12-28T01:28:21;9.13;;;2.90;;
41201;SDS011;26936;50.524;8.684;2023-12-28T01:30:46;5.22;;;2.97;;
41201;SDS011;26936;50.524;8.684;2023-12-28T01:33:12;5.47;;;3.53;;
41201;SDS011;26936;50.524;8.684;2023-12-28T01:35:37;9.43;;;2.97;;
41201;SDS011;26936;50.524;8.684;2023-12-28T01:38:02;8.17;;;2.77;;
41201;SDS011;26936;50.524;8.684;2023-12-28T01:40:28;7.35;;;3.30;;
41201;SDS011;26936;50.524;8.684;2023-12-28T01:42:53;4.80;;;3.10;;
41201;SDS011;26936;50.524;8.684;2023-12-28T01:45:19;5.80;;;2.70;;
41201;SDS011;26936;50.524;8.684;2023-12-28T01:47:44;4.88;;;2.60;;
41201;SDS011;26936;50.524;8.684;2023-12-28T01:50:10;4.65;;;2.70;;
41201;SDS011;26936;50.524;8.684;2023-12-28T01:52:36;5.35;;;2.85;;
41201;SDS011;26936;50.524;8.684;2023-12-28T01:55:02;5.80;;;2.88;;
41201;SDS011;26936;50.524;8.684;2023-12-28T01:57:29;6.50;;;2.92;;
41201;SDS011;26936;50.524;8.684;2023-12-28T01:59:55;5.82;;;2.90;;
41201;SDS011;26936;50.524;8.684;2023-12-28T02:02:21;9.30;;;2.95;;
41201;SDS011;26936;50.524;8.684;2023-12-28T02:04:47;6.65;;;2.85;;
41201;SDS011;26936;50.524;8.684;2023-12-28T02:07:13;6.03;;;3.20;;
41201;SDS011;26936;50.524;8.684;2023-12-28T02:09:39;7.85;;;2.78;;
41201;SDS011;26936;50.524;8.684;2023-12-28T02:12:04;5.70;;;2.88;;
41201;SDS011;26936;50.524;8.684;2023-12-28T02:14:30;5.28;;;2.50;;
41201;SDS011;26936;50.524;8.684;2023-12-28T02:20:09;7.80;;;2.38;;
41201;SDS011;26936;50.524;8.684;2023-12-28T02:22:36;3.60;;;2.10;;
41201;SDS011;26936;50.524;8.684;2023-12-28T02:25:05;4.47;;;2.75;;
41201;SDS011;26936;50.524;8.684;2023-12-28T02:27:47;3.75;;;2.20;;
41201;SDS011;26936;50.524;8.684;2023-12-28T02:30:15;4.95;;;2.42;;
41201;SDS011;26936;50.524;8.684;2023-12-28T02:32:52;4.90;;;3.25;;
41201;SDS011;26936;50.524;8.684;2023-12-28T02:35:43;6.53;;;3.55;;
41201;SDS011;26936;50.524;8.684;2023-12-28T02:38:13;6.85;;;3.45;;
41201;SDS011;26936;50.524;8.684;2023-12-28T02:40:41;7.32;;;3.65;;
41201;SDS011;26936;50.524;8.684;2023-12-28T02:43:10;6.45;;;3.80;;
41201;SDS011;26936;50.524;8.684;2023-12-28T02:45:36;5.80;;;3.25;;
41201;SDS011;26936;50.524;8.684;2023-12-28T02:48:03;8.88;;;4.00;;
41201;SDS011;26936;50.524;8.684;2023-12-28T02:50:29;6.72;;;3.40;;
41201;SDS011;26936;50.524;8.684;2023-12-28T02:52:55;10.30;;;3.42;;
41201;SDS011;26936;50.524;8.684;2023-12-28T02:55:21;4.40;;;2.95;;
41201;SDS011;26936;50.524;8.684;2023-12-28T02:57:46;6.30;;;3.00;;
41201;SDS011;26936;50.524;8.684;2023-12-28T03:00:12;5.60;;;2.97;;
41201;SDS011;26936;50.524;8.684;2023-12-28T03:02:37;6.57;;;2.60;;
41201;SDS011;26936;50.524;8.684;2023-12-28T03:05:06;4.65;;;2.80;;
41201;SDS011;26936;50.524;8.684;2023-12-28T03:07:35;6.65;;;3.35;;
41201;SDS011;26936;50.524;8.684;2023-12-28T03:10:01;6.38;;;3.72;;
41201;SDS011;26936;50.524;8.684;2023-12-28T03:12:28;7.57;;;3.58;;
41201;SDS011;26936;50.524;8.684;2023-12-28T03:14:53;6.10;;;3.42;;
41201;SDS011;26936;50.524;8.684;2023-12-28T03:17:19;6.20;;;3.30;;
41201;SDS011;26936;50.524;8.684;2023-12-28T03:19:44;7.83;;;3.80;;
41201;SDS011;26936;50.524;8.684;2023-12-28T03:22:09;8.20;;;3.90;;
41201;SDS011;26936;50.524;8.684;2023-12-28T03:24:36;6.95;;;3.50;;
41201;SDS011;26936;50.524;8.684;2023-12-28T03:27:02;7.55;;;3.58;;
41201;SDS011;26936;50.524;8.684;2023-12-28T03:29:28;8.75;;;3.75;;
41201;SDS011;26936;50.524;8.684;2023-12-28T03:31:53;8.27;;;4.07;;
41201;SDS011;26936;50.524;8.684;2023-12-28T03:34:18;5.90;;;3.13;;
41201;SDS011;26936;50.524;8.684;2023-12-28T03:36:43;8.97;;;3.77;;
41201;SDS011;26936;50.524;8.684;2023-12-28T03:39:09;7.23;;;3.70;;
41201;SDS011;26936;50.524;8.684;2023-12-28T03:41:34;5.05;;;3.30;;
41201;SDS011;26936;50.524;8.684;2023-12-28T03:43:59;5.77;;;3.43;;
41201;SDS011;26936;50.524;8.684;2023-12-28T03:46:25;6.50;;;3.33;;
41201;SDS011;26936;50.524;8.684;2023-12-28T03:48:51;7.00;;;3.60;;
41201;SDS011;26936;50.524;8.684;2023-12-28T03:51:17;6.45;;;3.67;;
41201;SDS011;26936;50.524;8.684;2023-12-28T03:53:42;7.22;;;3.58;;
41201;SDS011;26936;50.524;8.684;2023-12-28T03:56:08;7.88;;;3.22;;
41201;SDS011;26936;50.524;8.684;2023-12-28T03:58:43;4.38;;;2.83;;
41201;SDS011;26936;50.524;8.684;2023-12-28T04:01:09;6.10;;;3.00;;
41201;SDS011;26936;50.524;8.684;2023-12-28T04:03:34;4.78;;;2.58;;
41201;SDS011;26936;50.524;8.684;2023-12-28T04:06:00;5.00;;;2.60;;
41201;SDS011;26936;50.524;8.684;2023-12-28T04:08:25;4.57;;;2.60;;
41201;SDS011;26936;50.524;8.684;2023-12-28T04:10:50;4.70;;;2.73;;
41201;SDS011;26936;50.524;8.684;2023-12-28T04:13:15;2.93;;;2.00;;
41201;SDS011;26936;50.524;8.684;2023-12-28T04:15:41;4.00;;;2.43;;
41201;SDS011;26936;50.524;8.684;2023-12-28T04:18:08;4.53;;;2.10;;
41201;SDS011;26936;50.524;8.684;2023-12-28T04:20:33;4.17;;;1.90;;
41201;SDS011;26936;50.524;8.684;2023-12-28T04:22:58;4.72;;;2.20;;
41201;SDS011;26936;50.524;8.684;2023-12-28T04:25:23;4.07;;;2.20;;
41201;SDS011;26936;50.524;8.684;2023-12-28T04:27:49;3.83;;;2.20;;
41201;SDS011;26936;50.524;8.684;2023-12-28T04:30:14;3.42;;;2.03;;
41201;SDS011;26936;50.524;8.684;2023-12-28T04:32:39;3.90;;;2.13;;
41201;SDS011;26936;50.524;8.684;2023-12-28T04:35:05;3.45;;;2.15;;
41201;SDS011;26936;50.524;8.684;2023-12-28T04:37:31;3.88;;;2.00;;
41201;SDS011;26936;50.524;8.684;2023-12-28T04:39:57;5.15;;;2.20;;
41201;SDS011;26936;50.524;8.684;2023-12-28T04:42:22;4.18;;;1.90;;
41201;SDS011;26936;50.524;8.684;2023-12-28T04:44:48;2.97;;;1.70;;
41201;SDS011;26936;50.524;8.684;2023-12-28T04:47:13;2.75;;;1.70;;
41201;SDS011;26936;50.524;8.684;2023-12-28T04:49:38;3.10;;;1.90;;
41201;SDS011;26936;50.524;8.684;2023-12-28T04:52:03;3.77;;;1.73;;
41201;SDS011;26936;50.524;8.684;2023-12-28T04:54:29;2.75;;;1.70;;
41201;SDS011;26936;50.524;8.684;2023-12-28T04:56:54;3.40;;;1.80;;
41201;SDS011;26936;50.524;8.684;2023-12-28T04:59:19;3.93;;;1.60;;
41201;SDS011;26936;50.524;8.684;2023-12-28T05:01:45;2.60;;;1.43;;
41201;SDS011;26936;50.524;8.684;2023-12-28T05:04:10;3.17;;;1.60;;
41201;SDS011;26936;50.524;8.684;2023-12-28T05:06:36;3.13;;;1.77;;
41201;SDS011;26936;50.524;8.684;2023-12-28T05:09:01;3.47;;;1.88;;
41201;SDS011;26936;50.524;8.684;2023-12-28T05:11:27;3.08;;;1.70;;
41201;SDS011;26936;50.524;8.684;2023-12-28T05:13:52;2.40;;;1.40;;
41201;SDS011;26936;50.524;8.684;2023-12-28T05:16:18;3.35;;;1.65;;
41201;SDS011;26936;50.524;8.684;2023-12-28T05:18:44;2.40;;;1.73;;
41201;SDS011;26936;50.524;8.684;2023-12-28T05:21:09;3.70;;;1.58;;
41201;SDS011;26936;50.524;8.684;2023-12-28T05:23:34;3.77;;;1.40;;
41201;SDS011;26936;50.524;8.684;2023-12-28T05:25:59;4.27;;;1.87;;
41201;SDS011;26936;50.524;8.684;2023-12-28T05:28:25;3.87;;;1.40;;
41201;SDS011;26936;50.524;8.684;2023-12-28T05:30:50;3.57;;;1.80;;
41201;SDS011;26936;50.524;8.684;2023-12-28T05:33:15;3.37;;;1.73;;
41201;SDS011;26936;50.524;8.684;2023-12-28T05:35:40;4.70;;;1.60;;
41201;SDS011;26936;50.524;8.684;2023-12-28T05:38:05;2.63;;;1.50;;
41201;SDS011;26936;50.524;8.684;2023-12-28T05:40:31;6.50;;;2.60;;
41201;SDS011;26936;50.524;8.684;2023-12-28T05:42:56;6.53;;;2.87;;
41201;SDS011;26936;50.524;8.684;2023-12-28T05:45:21;5.03;;;2.53;;
41201;SDS011;26936;50.524;8.684;2023-12-28T05:47:47;5.93;;;2.63;;
41201;SDS011;26936;50.524;8.684;2023-12-28T05:50:12;5.38;;;2.88;;
41201;SDS011;26936;50.524;8.684;2023-12-28T05:52:38;4.43;;;2.38;;
41201;SDS011;26936;50.524;8.684;2023-12-28T05:55:03;5.80;;;2.70;;
41201;SDS011;26936;50.524;8.684;2023-12-28T05:57:29;4.13;;;2.63;;
41201;SDS011;26936;50.524;8.684;2023-12-28T05:59:56;5.32;;;2.85;;
41201;SDS011;26936;50.524;8.684;2023-12-28T06:02:21;5.40;;;2.83;;
41201;SDS011;26936;50.524;8.684;2023-12-28T06:04:47;5.73;;;2.87;;
41201;SDS011;26936;50.524;8.684;2023-12-28T06:07:12;4.83;;;2.70;;
41201;SDS011;26936;50.524;8.684;2023-12-28T06:09:37;3.78;;;2.28;;
41201;SDS011;26936;50.524;8.684;2023-12-28T06:12:04;6.15;;;3.33;;
41201;SDS011;26936;50.524;8.684;2023-12-28T06:14:29;6.63;;;2.55;;
41201;SDS011;26936;50.524;8.684;2023-12-28T06:16:55;5.10;;;2.28;;
41201;SDS011;26936;50.524;8.684;2023-12-28T06:19:20;5.95;;;3.20;;
41201;SDS011;26936;50.524;8.684;2023-12-28T06:21:47;5.55;;;2.97;;
41201;SDS011;26936;50.524;8.684;2023-12-28T06:24:12;5.10;;;3.15;;
41201;SDS011;26936;50.524;8.684;2023-12-28T06:26:41;6.65;;;3.00;;
41201;SDS011;26936;50.524;8.684;2023-12-28T06:29:06;4.60;;;2.58;;
41201;SDS011;26936;50.524;8.684;2023-12-28T06:31:32;5.18;;;2.28;;
41201;SDS011;26936;50.524;8.684;2023-12-28T06:34:00;3.55;;;2.35;;
41201;SDS011;26936;50.524;8.684;2023-12-28T06:36:26;3.22;;;2.10;;
41201;SDS011;26936;50.524;8.684;2023-12-28T06:38:51;4.60;;;2.27;;
41201;SDS011;26936;50.524;8.684;2023-12-28T06:41:17;4.57;;;2.70;;
41201;SDS011;26936;50.524;8.684;2023-12-28T06:43:42;5.95;;;2.88;;
41201;SDS011;26936;50.524;8.684;2023-12-28T06:46:07;4.67;;;2.20;;
41201;SDS011;26936;50.524;8.684;2023-12-28T06:48:33;5.00;;;2.50;;
41201;SDS011;26936;50.524;8.684;2023-12-28T06:50:58;4.03;;;2.38;;
41201;SDS011;26936;50.524;8.684;2023-12-28T06:53:23;6.07;;;2.93;;
41201;SDS011;26936;50.524;8.684;2023-12-28T06:55:48;5.27;;;2.80;;
41201;SDS011;26936;50.524;8.684;2023-12-28T06:58:14;6.18;;;3.05;;
41201;SDS011;26936;50.524;8.684;2023-12-28T07:00:39;5.03;;;3.10;;
41201;SDS011;26936;50.524;8.684;2023-12-28T07:03:06;5.85;;;3.42;;
41201;SDS011;26936;50.524;8.684;2023-12-28T07:05:31;6.22;;;3.80;;
41201;SDS011;26936;50.524;8.684;2023-12-28T07:07:56;7.73;;;3.77;;
41201;SDS011;26936;50.524;8.684;2023-12-28T07:10:22;8.20;;;3.63;;
41201;SDS011;26936;50.524;8.684;2023-12-28T07:12:47;7.80;;;3.40;;
41201;SDS011;26936;50.524;8.684;2023-12-28T07:15:12;5.10;;;3.10;;
41201;SDS011;26936;50.524;8.684;2023-12-28T07:17:39;7.45;;;3.60;;
41201;SDS011;26936;50.524;8.684;2023-12-28T07:20:05;7.07;;;3.67;;
41201;SDS011;26936;50.524;8.684;2023-12-28T07:22:30;6.68;;;4.13;;
41201;SDS011;26936;50.524;8.684;2023-12-28T07:24:56;7.82;;;3.65;;
41201;SDS011;26936;50.524;8.684;2023-12-28T07:27:21;6.37;;;3.33;;
41201;SDS011;26936;50.524;8.684;2023-12-28T07:29:46;7.57;;;3.60;;
41201;SDS011;26936;50.524;8.684;2023-12-28T07:32:11;6.93;;;3.23;;
41201;SDS011;26936;50.524;8.684;2023-12-28T07:34:37;7.45;;;3.60;;
41201;SDS011;26936;50.524;8.684;2023-12-28T07:37:02;4.78;;;3.00;;
41201;SDS011;26936;50.524;8.684;2023-12-28T07:39:28;5.47;;;3.17;;
41201;SDS011;26936;50.524;8.684;2023-12-28T07:41:53;5.80;;;3.30;;
41201;SDS011;26936;50.524;8.684;2023-12-28T07:44:18;5.40;;;3.30;;
41201;SDS011;26936;50.524;8.684;2023-12-28T07:46:43;7.23;;;3.33;;
41201;SDS011;26936;50.524;8.684;2023-12-28T07:49:09;6.67;;;2.90;;
41201;SDS011;26936;50.524;8.684;2023-12-28T07:51:34;5.78;;;3.00;;
41201;SDS011;26936;50.524;8.684;2023-12-28T07:53:59;7.43;;;3.08;;
41201;SDS011;26936;50.524;8.684;2023-12-28T07:56:24;6.97;;;3.43;;
41201;SDS011;26936;50.524;8.684;2023-12-28T07:58:50;6.27;;;2.97;;
41201;SDS011;26936;50.524;8.684;2023-12-28T08:01:15;5.17;;;3.00;;
41201;SDS011;26936;50.524;8.684;2023-12-28T08:03:40;3.83;;;2.70;;
41201;SDS011;26936;50.524;8.684;2023-12-28T08:06:05;5.63;;;3.13;;
41201;SDS011;26936;50.524;8.684;2023-12-28T08:08:31;5.18;;;3.35;;
41201;SDS011;26936;50.524;8.684;2023-12-28T08:10:56;4.18;;;2.30;;
41201;SDS011;26936;50.524;8.684;2023-12-28T08:13:21;5.68;;;2.50;;
41201;SDS011;26936;50.524;8.684;2023-12-28T08:15:47;5.73;;;2.90;;
41201;SDS011;26936;50.524;8.684;2023-12-28T08:18:12;4.33;;;2.50;;
41201;SDS011;26936;50.524;8.684;2023-12-28T08:20:37;7.47;;;2.70;;
41201;SDS011;26936;50.524;8.684;2023-12-28T08:23:03;6.18;;;2.92;;
41201;SDS011;26936;50.524;8.684;2023-12-28T08:25:28;3.80;;;2.60;;
41201;SDS011;26936;50.524;8.684;2023-12-28T08:27:53;3.83;;;2.80;;
41201;SDS011;26936;50.524;8.684;2023-12-28T08:30:19;3.63;;;2.28;;
41201;SDS011;26936;50.524;8.684;2023-12-28T08:32:44;3.90;;;2.85;;
41201;SDS011;26936;50.524;8.684;2023-12-28T08:35:09;6.00;;;3.00;;
41201;SDS011;26936;50.524;8.684;2023-12-28T08:37:34;4.10;;;2.67;;
41201;SDS011;26936;50.524;8.684;2023-12-28T08:40:00;8.00;;;2.80;;
41201;SDS011;26936;50.524;8.684;2023-12-28T08:42:25;5.47;;;3.67;;
41201;SDS011;26936;50.524;8.684;2023-12-28T08:44:50;6.25;;;3.42;;
41201;SDS011;26936;50.524;8.684;2023-12-28T08:47:16;4.53;;;2.92;;
41201;SDS011;26936;50.524;8.684;2023-12-28T08:49:42;5.40;;;2.60;;
41201;SDS011;26936;50.524;8.684;2023-12-28T08:52:07;4.93;;;2.67;;
41201;SDS011;26936;50.524;8.684;2023-12-28T08:54:33;5.30;;;2.70;;
41201;SDS011;26936;50.524;8.684;2023-12-28T08:56:58;5.55;;;2.70;;
41201;SDS011;26936;50.524;8.684;2023-12-28T08:59:23;5.03;;;3.28;;
41201;SDS011;26936;50.524;8.684;2023-12-28T09:01:48;4.45;;;2.80;;
41201;SDS011;26936;50.524;8.684;2023-12-28T09:04:14;5.57;;;2.60;;
41201;SDS011;26936;50.524;8.684;2023-12-28T09:06:39;4.18;;;2.58;;
41201;SDS011;26936;50.524;8.684;2023-12-28T09:09:04;6.07;;;3.22;;
41201;SDS011;26936;50.524;8.684;2023-12-28T09:11:30;5.47;;;2.60;;
41201;SDS011;26936;50.524;8.684;2023-12-28T09:13:56;4.85;;;2.38;;
41201;SDS011;26936;50.524;8.684;2023-12-28T09:16:21;4.05;;;2.33;;
41201;SDS011;26936;50.524;8.684;2023-12-28T09:18:46;6.20;;;2.40;;
41201;SDS011;26936;50.524;8.684;2023-12-28T09:21:12;4.28;;;2.13;;
41201;SDS011;26936;50.524;8.684;2023-12-28T09:23:37;4.57;;;2.25;;
41201;SDS011;26936;50.524;8.684;2023-12-28T09:26:03;4.70;;;2.28;;
41201;SDS011;26936;50.524;8.684;2023-12-28T09:28:30;4.28;;;2.08;;
41201;SDS011;26936;50.524;8.684;2023-12-28T09:30:56;3.72;;;2.13;;
41201;SDS011;26936;50.524;8.684;2023-12-28T09:33:21;5.43;;;2.55;;
41201;SDS011;26936;50.524;8.684;2023-12-28T09:35:47;3.75;;;2.20;;
41201;SDS011;26936;50.524;8.684;2023-12-28T09:38:13;3.50;;;2.20;;
41201;SDS011;26936;50.524;8.684;2023-12-28T09:40:41;5.68;;;2.53;;
41201;SDS011;26936;50.524;8.684;2023-12-28T09:43:13;3.63;;;2.08;;
41201;SDS011;26936;50.524;8.684;2023-12-28T09:45:42;6.45;;;2.63;;
41201;SDS011;26936;50.524;8.684;2023-12-28T09:48:11;5.68;;;2.78;;
41201;SDS011;26936;50.524;8.684;2023-12-28T09:50:37;5.15;;;2.40;;
41201;SDS011;26936;50.524;8.684;2023-12-28T09:53:03;5.30;;;2.00;;
41201;SDS011;26936;50.524;8.684;2023-12-28T09:55:28;4.00;;;2.03;;
41201;SDS011;26936;50.524;8.684;2023-12-28T09:57:54;4.75;;;1.83;;
41201;SDS011;26936;50.524;8.684;2023-12-28T10:00:21;3.58;;;1.90;;
41201;SDS011;26936;50.524;8.684;2023-12-28T10:02:47;4.35;;;1.73;;
41201;SDS011;26936;50.524;8.684;2023-12-28T10:05:15;6.85;;;1.85;;
41201;SDS011;26936;50.524;8.684;2023-12-28T10:07:41;5.10;;;1.92;;
41201;SDS011;26936;50.524;8.684;2023-12-28T10:10:10;3.60;;;1.75;;
41201;SDS011;26936;50.524;8.684;2023-12-28T10:12:36;5.35;;;1.95;;
41201;SDS011;26936;50.524;8.684;2023-12-28T10:15:02;3.20;;;1.80;;
41201;SDS011;26936;50.524;8.684;2023-12-28T10:17:34;4.68;;;1.98;;
41201;SDS011;26936;50.524;8.684;2023-12-28T10:20:00;5.43;;;2.00;;
41201;SDS011;26936;50.524;8.684;2023-12-28T10:22:29;3.35;;;1.77;;
41201;SDS011;26936;50.524;8.684;2023-12-28T10:24:56;3.03;;;1.65;;
41201;SDS011;26936;50.524;8.684;2023-12-28T10:27:21;4.05;;;1.60;;
41201;SDS011;26936;50.524;8.684;2023-12-28T10:29:47;6.03;;;1.80;;
41201;SDS011;26936;50.524;8.684;2023-12-28T10:32:13;5.50;;;1.33;;
41201;SDS011;26936;50.524;8.684;2023-12-28T10:34:38;5.07;;;1.63;;
41201;SDS011;26936;50.524;8.684;2023-12-28T10:37:03;2.78;;;1.30;;
41201;SDS011;26936;50.524;8.684;2023-12-28T10:39:30;3.30;;;1.33;;
41201;SDS011;26936;50.524;8.684;2023-12-28T10:41:58;3.63;;;1.50;;
41201;SDS011;26936;50.524;8.684;2023-12-28T10:44:27;4.40;;;1.20;;
41201;SDS011;26936;50.524;8.684;2023-12-28T10:46:59;3.22;;;1.30;;
41201;SDS011;26936;50.524;8.684;2023-12-28T10:49:26;3.38;;;1.27;;
41201;SDS011;26936;50.524;8.684;2023-12-28T10:51:55;3.42;;;0.88;;
41201;SDS011;26936;50.524;8.684;2023-12-28T10:56:59;3.20;;;1.00;;
41201;SDS011;26936;50.524;8.684;2023-12-28T11:01:58;4.25;;;1.30;;
41201;SDS011;26936;50.524;8.684;2023-12-28T11:04:28;2.00;;;1.02;;
41201;SDS011;26936;50.524;8.684;2023-12-28T11:07:03;3.90;;;1.20;;
41201;SDS011;26936;50.524;8.684;2023-12-28T11:09:31;2.95;;;0.95;;
41201;SDS011;26936;50.524;8.684;2023-12-28T11:11:58;4.40;;;1.15;;
41201;SDS011;26936;50.524;8.684;2023-12-28T11:14:26;4.97;;;1.00;;
41201;SDS011;26936;50.524;8.684;2023-12-28T11:16:52;6.85;;;1.15;;
41201;SDS011;26936;50.524;8.684;2023-12-28T11:19:18;6.25;;;1.10;;
41201;SDS011;26936;50.524;8.684;2023-12-28T11:21:46;3.15;;;1.00;;
41201;SDS011;26936;50.524;8.684;2023-12-28T11:24:12;2.17;;;0.70;;
41201;SDS011;26936;50.524;8.684;2023-12-28T11:26:38;3.63;;;1.35;;
41201;SDS011;26936;50.524;8.684;2023-12-28T11:29:04;5.70;;;1.15;;
41201;SDS011;26936;50.524;8.684;2023-12-28T11:31:32;4.20;;;1.00;;
41201;SDS011;26936;50.524;8.684;2023-12-28T11:34:01;3.83;;;1.02;;
41201;SDS011;26936;50.524;8.684;2023-12-28T11:36:33;5.82;;;1.35;;
41201;SDS011;26936;50.524;8.684;2023-12-28T11:39:01;2.97;;;1.35;;
41201;SDS011;26936;50.524;8.684;2023-12-28T11:41:30;5.07;;;1.20;;
41201;SDS011;26936;50.524;8.684;2023-12-28T11:43:56;6.45;;;1.27;;
41201;SDS011;26936;50.524;8.684;2023-12-28T11:46:21;2.22;;;0.80;;
41201;SDS011;26936;50.524;8.684;2023-12-28T11:48:47;4.55;;;1.00;;
41201;SDS011;26936;50.524;8.684;2023-12-28T11:51:12;3.80;;;0.97;;
41201;SDS011;26936;50.524;8.684;2023-12-28T11:53:38;3.00;;;1.10;;
41201;SDS011;26936;50.524;8.684;2023-12-28T11:56:03;4.72;;;1.50;;
41201;SDS011;26936;50.524;8.684;2023-12-28T11:58:30;2.20;;;0.90;;
41201;SDS011;26936;50.524;8.684;2023-12-28T12:00:55;4.38;;;1.23;;
41201;SDS011;26936;50.524;8.684;2023-12-28T12:03:20;3.53;;;1.20;;
41201;SDS011;26936;50.524;8.684;2023-12-28T12:05:46;6.57;;;1.27;;
41201;SDS011;26936;50.524;8.684;2023-12-28T12:08:11;2.33;;;0.87;;
41201;SDS011;26936;50.524;8.684;2023-12-28T12:10:39;4.05;;;0.90;;
41201;SDS011;26936;50.524;8.684;2023-12-28T12:13:05;3.20;;;0.98;;
41201;SDS011;26936;50.524;8.684;2023-12-28T12:15:31;3.72;;;0.90;;
41201;SDS011;26936;50.524;8.684;2023-12-28T12:17:56;2.65;;;0.82;;
41201;SDS011;26936;50.524;8.684;2023-12-28T12:20:22;2.55;;;0.75;;
41201;SDS011;26936;50.524;8.684;2023-12-28T12:22:48;2.63;;;1.15;;
41201;SDS011;26936;50.524;8.684;2023-12-28T12:25:14;2.75;;;0.80;;
41201;SDS011;26936;50.524;8.684;2023-12-28T12:27:40;4.15;;;0.90;;
41201;SDS011;26936;50.524;8.684;2023-12-28T12:30:06;4.43;;;0.82;;
41201;SDS011;26936;50.524;8.684;2023-12-28T12:32:32;3.50;;;0.88;;
41201;SDS011;26936;50.524;8.684;2023-12-28T12:34:58;4.03;;;0.82;;
41201;SDS011;26936;50.524;8.684;2023-12-28T12:37:24;3.40;;;0.82;;
41201;SDS011;26936;50.524;8.684;2023-12-28T12:39:49;6.18;;;1.02;;
41201;SDS011;26936;50.524;8.684;2023-12-28T12:42:15;4.60;;;0.90;;
41201;SDS011;26936;50.524;8.684;2023-12-28T12:44:41;3.15;;;1.17;;
41201;SDS011;26936;50.524;8.684;2023-12-28T12:47:07;3.85;;;0.75;;
41201;SDS011;26936;50.524;8.684;2023-12-28T12:49:32;4.13;;;0.90;;
41201;SDS011;26936;50.524;8.684;2023-12-28T12:51:57;4.22;;;1.30;;
41201;SDS011;26936;50.524;8.684;2023-12-28T12:54:23;3.58;;;0.70;;
41201;SDS011;26936;50.524;8.684;2023-12-28T12:56:51;5.15;;;0.80;;
41201;SDS011;26936;50.524;8.684;2023-12-28T12:59:17;5.43;;;1.00;;
41201;SDS011;26936;50.524;8.684;2023-12-28T13:01:43;5.55;;;0.90;;
41201;SDS011;26936;50.524;8.684;2023-12-28T13:04:10;2.55;;;0.80;;
41201;SDS011;26936;50.524;8.684;2023-12-28T13:06:36;4.38;;;1.00;;
41201;SDS011;26936;50.524;8.684;2023-12-28T13:09:02;5.07;;;1.20;;
41201;SDS011;26936;50.524;8.684;2023-12-28T13:11:28;6.18;;;1.02;;
41201;SDS011;26936;50.524;8.684;2023-12-28T13:13:53;2.28;;;0.90;;
41201;SDS011;26936;50.524;8.684;2023-12-28T13:16:18;4.82;;;1.27;;
41201;SDS011;26936;50.524;8.684;2023-12-28T13:18:44;4.60;;;1.10;;
41201;SDS011;26936;50.524;8.684;2023-12-28T13:21:09;3.35;;;0.90;;
41201;SDS011;26936;50.524;8.684;2023-12-28T13:23:34;2.37;;;0.77;;
41201;SDS011;26936;50.524;8.684;2023-12-28T13:26:00;3.07;;;0.70;;
41201;SDS011;26936;50.524;8.684;2023-12-28T13:28:25;3.97;;;0.97;;
41201;SDS011;26936;50.524;8.684;2023-12-28T13:30:50;5.40;;;1.90;;
41201;SDS011;26936;50.524;8.684;2023-12-28T13:33:16;3.15;;;0.90;;
41201;SDS011;26936;50.524;8.684;2023-12-28T13:35:41;3.13;;;0.70;;
41201;SDS011;26936;50.524;8.684;2023-12-28T13:38:07;2.30;;;0.70;;
41201;SDS011;26936;50.524;8.684;2023-12-28T13:40:32;4.13;;;0.75;;
41201;SDS011;26936;50.524;8.684;2023-12-28T13:42:57;5.43;;;1.00;;
41201;SDS011;26936;50.524;8.684;2023-12-28T13:45:23;3.72;;;0.90;;
41201;SDS011;26936;50.524;8.684;2023-12-28T13:47:49;4.45;;;0.95;;
41201;SDS011;26936;50.524;8.684;2023-12-28T13:50:14;2.85;;;0.90;;
41201;SDS011;26936;50.524;8.684;2023-12-28T13:52:39;4.05;;;0.80;;
41201;SDS011;26936;50.524;8.684;2023-12-28T13:55:05;6.40;;;1.02;;
41201;SDS011;26936;50.524;8.684;2023-12-28T13:57:31;4.32;;;1.05;;
41201;SDS011;26936;50.524;8.684;2023-12-28T13:59:57;4.68;;;1.10;;
41201;SDS011;26936;50.524;8.684;2023-12-28T14:02:25;4.22;;;0.80;;
41201;SDS011;26936;50.524;8.684;2023-12-28T14:04:53;6.70;;;1.13;;
41201;SDS011;26936;50.524;8.684;2023-12-28T14:07:22;3.97;;;1.00;;
41201;SDS011;26936;50.524;8.684;2023-12-28T14:09:48;7.72;;;0.90;;
41201;SDS011;26936;50.524;8.684;2023-12-28T14:12:13;5.03;;;1.10;;
41201;SDS011;26936;50.524;8.684;2023-12-28T14:14:38;5.03;;;1.20;;
41201;SDS011;26936;50.524;8.684;2023-12-28T14:17:04;4.57;;;0.90;;
41201;SDS011;26936;50.524;8.684;2023-12-28T14:19:29;4.47;;;0.90;;
41201;SDS011;26936;50.524;8.684;2023-12-28T14:21:55;3.53;;;0.80;;
41201;SDS011;26936;50.524;8.684;2023-12-28T14:24:21;4.43;;;1.05;;
41201;SDS011;26936;50.524;8.684;2023-12-28T14:26:46;3.70;;;0.80;;
41201;SDS011;26936;50.524;8.684;2023-12-28T14:29:12;4.03;;;0.95;;
41201;SDS011;26936;50.524;8.684;2023-12-28T14:31:38;5.00;;;1.00;;
41201;SDS011;26936;50.524;8.684;2023-12-28T14:34:03;4.88;;;1.00;;
41201;SDS011;26936;50.524;8.684;2023-12-28T14:36:31;4.85;;;0.85;;
41201;SDS011;26936;50.524;8.684;2023-12-28T14:39:01;2.88;;;0.80;;
41201;SDS011;26936;50.524;8.684;2023-12-28T14:41:29;2.20;;;1.00;;
41201;SDS011;26936;50.524;8.684;2023-12-28T14:43:55;4.45;;;0.93;;
41201;SDS011;26936;50.524;8.684;2023-12-28T14:46:21;4.47;;;0.80;;
41201;SDS011;26936;50.524;8.684;2023-12-28T14:48:47;2.40;;;0.90;;